sensor_id;sensor_type;location;lat;lon;timestamp;P1;durP1;ratioP1;P2;durP2;ratioP2
25758;SDS011;13604;52.496;13.456;2023-01-28T00:02:14;16.03;;;5.23;;
25758;SDS011;13604;52.496;13.456;2023-01-28T00:04:40;12.53;;;5.27;;
25758;SDS011;13604;52.496;13.456;2023-01-28T00:07:05;12.20;;;5.20;;
25758;SDS011;13604;52.496;13.456;2023-01-28T00:09:30;12.57;;;5.70;;
25758;SDS011;13604;52.496;13.456;2023-01-28T00:11:55;20.60;;;6.20;;
25758;SDS011;13604;52.496;13.456;2023-01-28T00:14:20;17.53;;;6.23;;
25758;SDS011;13604;52.496;13.456;2023-01-28T00:16:45;19.50;;;5.83;;
25758;SDS011;13604;52.496;13.456;2023-01-28T00:19:11;22.13;;;6.93;;
25758;SDS011;13604;52.496;13.456;2023-01-28T00:21:36;15.18;;;5.53;;
25758;SDS011;13604;52.496;13.456;2023-01-28T00:24:01;11.47;;;4.57;;
25758;SDS011;13604;52.496;13.456;2023-01-28T00:26:26;11.87;;;5.00;;
25758;SDS011;13604;52.496;13.456;2023-01-28T00:28:52;15.70;;;5.80;;
25758;SDS011;13604;52.496;13.456;2023-01-28T00:31:18;18.60;;;7.30;;
25758;SDS011;13604;52.496;13.456;2023-01-28T00:33:44;16.75;;;5.72;;
25758;SDS011;13604;52.496;13.456;2023-01-28T00:36:10;15.60;;;5.68;;
25758;SDS011;13604;52.496;13.456;2023-01-28T00:38:35;13.75;;;5.35;;
25758;SDS011;13604;52.496;13.456;2023-01-28T00:41:07;13.50;;;5.47;;
25758;SDS011;13604;52.496;13.456;2023-01-28T00:43:34;14.35;;;6.13;;
25758;SDS011;13604;52.496;13.456;2023-01-28T00:45:59;16.97;;;6.80;;
25758;SDS011;13604;52.496;13.456;2023-01-28T00:48:24;15.20;;;6.63;;
25758;SDS011;13604;52.496;13.456;2023-01-28T00:50:49;17.00;;;6.70;;
25758;SDS011;13604;52.496;13.456;2023-01-28T00:53:15;20.80;;;6.67;;
25758;SDS011;13604;52.496;13.456;2023-01-28T00:55:41;19.15;;;6.60;;
25758;SDS011;13604;52.496;13.456;2023-01-28T00:58:06;19.00;;;6.67;;
25758;SDS011;13604;52.496;13.456;2023-01-28T01:00:31;18.50;;;6.57;;
25758;SDS011;13604;52.496;13.456;2023-01-28T01:02:56;14.17;;;6.03;;
25758;SDS011;13604;52.496;13.456;2023-01-28T01:05:21;14.43;;;6.07;;
25758;SDS011;13604;52.496;13.456;2023-01-28T01:07:46;13.90;;;5.17;;
25758;SDS011;13604;52.496;13.456;2023-01-28T01:10:13;18.23;;;5.53;;
25758;SDS011;13604;52.496;13.456;2023-01-28T01:12:38;15.32;;;5.70;;
25758;SDS011;13604;52.496;13.456;2023-01-28T01:15:04;17.67;;;6.20;;
25758;SDS011;13604;52.496;13.456;2023-01-28T01:17:33;13.80;;;5.70;;
25758;SDS011;13604;52.496;13.456;2023-01-28T01:19:58;14.23;;;6.30;;
25758;SDS011;13604;52.496;13.456;2023-01-28T01:22:23;16.67;;;6.33;;
25758;SDS011;13604;52.496;13.456;2023-01-28T01:24:48;21.47;;;6.77;;
25758;SDS011;13604;52.496;13.456;2023-01-28T01:27:14;15.93;;;6.00;;
25758;SDS011;13604;52.496;13.456;2023-01-28T01:29:39;23.48;;;6.88;;
25758;SDS011;13604;52.496;13.456;2023-01-28T01:32:04;16.02;;;6.53;;
25758;SDS011;13604;52.496;13.456;2023-01-28T01:34:29;16.73;;;6.13;;
25758;SDS011;13604;52.496;13.456;2023-01-28T01:36:54;19.33;;;6.53;;
25758;SDS011;13604;52.496;13.456;2023-01-28T01:39:20;24.00;;;7.80;;
25758;SDS011;13604;52.496;13.456;2023-01-28T01:41:45;18.47;;;7.27;;
25758;SDS011;13604;52.496;13.456;2023-01-28T01:46:54;14.30;;;6.50;;
25758;SDS011;13604;52.496;13.456;2023-01-28T01:49:23;13.30;;;6.37;;
25758;SDS011;13604;52.496;13.456;2023-01-28T01:51:50;14.80;;;5.88;;
25758;SDS011;13604;52.496;13.456;2023-01-28T01:54:16;16.30;;;5.80;;
25758;SDS011;13604;52.496;13.456;2023-01-28T01:56:43;18.27;;;5.47;;
25758;SDS011;13604;52.496;13.456;2023-01-28T01:59:11;16.77;;;5.60;;
25758;SDS011;13604;52.496;13.456;2023-01-28T02:01:38;14.27;;;4.78;;
25758;SDS011;13604;52.496;13.456;2023-01-28T02:04:05;14.77;;;4.85;;
25758;SDS011;13604;52.496;13.456;2023-01-28T02:06:32;13.05;;;4.63;;
25758;SDS011;13604;52.496;13.456;2023-01-28T02:08:58;13.82;;;5.15;;
25758;SDS011;13604;52.496;13.456;2023-01-28T02:11:27;12.63;;;5.23;;
25758;SDS011;13604;52.496;13.456;2023-01-28T02:13:54;12.90;;;4.80;;
25758;SDS011;13604;52.496;13.456;2023-01-28T02:16:21;14.00;;;4.57;;
25758;SDS011;13604;52.496;13.456;2023-01-28T02:18:46;10.88;;;4.32;;
25758;SDS011;13604;52.496;13.456;2023-01-28T02:23:43;14.00;;;4.75;;
25758;SDS011;13604;52.496;13.456;2023-01-28T02:26:16;13.95;;;4.75;;
25758;SDS011;13604;52.496;13.456;2023-01-28T02:28:51;12.30;;;4.53;;
25758;SDS011;13604;52.496;13.456;2023-01-28T02:33:50;13.95;;;4.45;;
25758;SDS011;13604;52.496;13.456;2023-01-28T02:36:34;11.55;;;4.30;;
25758;SDS011;13604;52.496;13.456;2023-01-28T02:39:01;13.95;;;4.25;;
25758;SDS011;13604;52.496;13.456;2023-01-28T02:41:36;13.48;;;4.68;;
25758;SDS011;13604;52.496;13.456;2023-01-28T02:44:02;10.35;;;4.35;;
25758;SDS011;13604;52.496;13.456;2023-01-28T02:49:14;10.70;;;4.65;;
25758;SDS011;13604;52.496;13.456;2023-01-28T02:54:08;10.68;;;4.20;;
25758;SDS011;13604;52.496;13.456;2023-01-28T02:59:19;10.30;;;4.22;;
25758;SDS011;13604;52.496;13.456;2023-01-28T03:04:25;10.63;;;4.05;;
25758;SDS011;13604;52.496;13.456;2023-01-28T03:06:53;9.77;;;3.53;;
25758;SDS011;13604;52.496;13.456;2023-01-28T03:09:20;12.65;;;4.13;;
25758;SDS011;13604;52.496;13.456;2023-01-28T03:11:49;8.85;;;3.53;;
25758;SDS011;13604;52.496;13.456;2023-01-28T03:14:34;11.52;;;3.95;;
25758;SDS011;13604;52.496;13.456;2023-01-28T03:20:24;8.73;;;3.00;;
25758;SDS011;13604;52.496;13.456;2023-01-28T03:23:09;8.75;;;3.40;;
25758;SDS011;13604;52.496;13.456;2023-01-28T03:25:54;8.05;;;3.40;;
25758;SDS011;13604;52.496;13.456;2023-01-28T03:28:39;10.00;;;3.88;;
25758;SDS011;13604;52.496;13.456;2023-01-28T03:31:25;7.68;;;3.28;;
25758;SDS011;13604;52.496;13.456;2023-01-28T03:34:09;13.35;;;3.90;;
25758;SDS011;13604;52.496;13.456;2023-01-28T03:36:53;9.63;;;3.65;;
25758;SDS011;13604;52.496;13.456;2023-01-28T03:39:26;13.55;;;3.60;;
25758;SDS011;13604;52.496;13.456;2023-01-28T03:41:55;8.13;;;2.95;;
25758;SDS011;13604;52.496;13.456;2023-01-28T03:44:20;10.23;;;3.38;;
25758;SDS011;13604;52.496;13.456;2023-01-28T03:47:04;5.55;;;2.97;;
25758;SDS011;13604;52.496;13.456;2023-01-28T03:49:31;11.20;;;3.92;;
25758;SDS011;13604;52.496;13.456;2023-01-28T03:51:56;6.43;;;3.07;;
25758;SDS011;13604;52.496;13.456;2023-01-28T03:54:21;7.03;;;2.87;;
25758;SDS011;13604;52.496;13.456;2023-01-28T03:56:46;9.43;;;3.37;;
25758;SDS011;13604;52.496;13.456;2023-01-28T03:59:12;6.13;;;3.10;;
25758;SDS011;13604;52.496;13.456;2023-01-28T04:01:38;6.90;;;2.93;;
25758;SDS011;13604;52.496;13.456;2023-01-28T04:04:03;9.73;;;3.50;;
25758;SDS011;13604;52.496;13.456;2023-01-28T04:06:28;8.18;;;2.88;;
25758;SDS011;13604;52.496;13.456;2023-01-28T04:08:54;7.20;;;3.08;;
25758;SDS011;13604;52.496;13.456;2023-01-28T04:11:23;9.05;;;2.67;;
25758;SDS011;13604;52.496;13.456;2023-01-28T04:13:50;9.57;;;2.92;;
25758;SDS011;13604;52.496;13.456;2023-01-28T04:16:16;10.30;;;3.00;;
25758;SDS011;13604;52.496;13.456;2023-01-28T04:18:44;8.48;;;2.92;;
25758;SDS011;13604;52.496;13.456;2023-01-28T04:21:10;7.25;;;3.10;;
25758;SDS011;13604;52.496;13.456;2023-01-28T04:23:35;6.72;;;2.88;;
25758;SDS011;13604;52.496;13.456;2023-01-28T04:26:00;4.32;;;2.90;;
25758;SDS011;13604;52.496;13.456;2023-01-28T04:28:26;8.47;;;2.70;;
25758;SDS011;13604;52.496;13.456;2023-01-28T04:30:51;9.47;;;2.70;;
25758;SDS011;13604;52.496;13.456;2023-01-28T04:33:16;7.03;;;2.20;;
25758;SDS011;13604;52.496;13.456;2023-01-28T04:35:41;7.77;;;2.80;;
25758;SDS011;13604;52.496;13.456;2023-01-28T04:38:07;8.13;;;3.10;;
25758;SDS011;13604;52.496;13.456;2023-01-28T04:40:32;7.43;;;2.33;;
25758;SDS011;13604;52.496;13.456;2023-01-28T04:42:57;6.07;;;2.55;;
25758;SDS011;13604;52.496;13.456;2023-01-28T04:45:23;4.60;;;2.60;;
25758;SDS011;13604;52.496;13.456;2023-01-28T04:47:48;5.80;;;2.30;;
25758;SDS011;13604;52.496;13.456;2023-01-28T04:50:13;5.07;;;2.85;;
25758;SDS011;13604;52.496;13.456;2023-01-28T04:52:39;5.63;;;2.60;;
25758;SDS011;13604;52.496;13.456;2023-01-28T04:55:05;3.97;;;2.10;;
25758;SDS011;13604;52.496;13.456;2023-01-28T04:57:30;7.22;;;2.60;;
25758;SDS011;13604;52.496;13.456;2023-01-28T04:59:56;5.80;;;2.78;;
25758;SDS011;13604;52.496;13.456;2023-01-28T05:02:21;7.30;;;3.07;;
25758;SDS011;13604;52.496;13.456;2023-01-28T05:04:46;5.13;;;2.60;;
25758;SDS011;13604;52.496;13.456;2023-01-28T05:07:11;7.10;;;2.70;;
25758;SDS011;13604;52.496;13.456;2023-01-28T05:09:36;6.50;;;2.10;;
25758;SDS011;13604;52.496;13.456;2023-01-28T05:12:02;7.30;;;2.30;;
25758;SDS011;13604;52.496;13.456;2023-01-28T05:14:27;5.30;;;2.40;;
25758;SDS011;13604;52.496;13.456;2023-01-28T05:16:52;5.13;;;2.10;;
25758;SDS011;13604;52.496;13.456;2023-01-28T05:19:17;6.90;;;2.40;;
25758;SDS011;13604;52.496;13.456;2023-01-28T05:21:42;5.63;;;2.50;;
25758;SDS011;13604;52.496;13.456;2023-01-28T05:24:08;5.43;;;2.37;;
25758;SDS011;13604;52.496;13.456;2023-01-28T05:26:33;3.50;;;2.78;;
25758;SDS011;13604;52.496;13.456;2023-01-28T05:28:58;4.40;;;2.90;;
25758;SDS011;13604;52.496;13.456;2023-01-28T05:31:23;5.25;;;2.70;;
25758;SDS011;13604;52.496;13.456;2023-01-28T05:33:48;4.80;;;2.78;;
25758;SDS011;13604;52.496;13.456;2023-01-28T05:36:14;7.07;;;2.83;;
25758;SDS011;13604;52.496;13.456;2023-01-28T05:38:39;5.10;;;2.10;;
25758;SDS011;13604;52.496;13.456;2023-01-28T05:41:04;6.60;;;2.60;;
25758;SDS011;13604;52.496;13.456;2023-01-28T05:43:29;8.23;;;3.37;;
25758;SDS011;13604;52.496;13.456;2023-01-28T05:45:54;10.97;;;3.37;;
25758;SDS011;13604;52.496;13.456;2023-01-28T05:48:19;6.47;;;3.40;;
25758;SDS011;13604;52.496;13.456;2023-01-28T05:50:48;6.53;;;2.87;;
25758;SDS011;13604;52.496;13.456;2023-01-28T05:53:13;8.00;;;3.22;;
25758;SDS011;13604;52.496;13.456;2023-01-28T05:55:38;7.03;;;3.63;;
25758;SDS011;13604;52.496;13.456;2023-01-28T05:58:03;7.03;;;3.10;;
25758;SDS011;13604;52.496;13.456;2023-01-28T06:00:28;6.10;;;3.23;;
25758;SDS011;13604;52.496;13.456;2023-01-28T06:02:53;6.73;;;3.33;;
25758;SDS011;13604;52.496;13.456;2023-01-28T06:05:19;10.67;;;3.80;;
25758;SDS011;13604;52.496;13.456;2023-01-28T06:07:45;9.85;;;4.18;;
25758;SDS011;13604;52.496;13.456;2023-01-28T06:10:10;9.43;;;4.78;;
25758;SDS011;13604;52.496;13.456;2023-01-28T06:12:35;11.80;;;5.60;;
25758;SDS011;13604;52.496;13.456;2023-01-28T06:15:01;15.40;;;5.70;;
25758;SDS011;13604;52.496;13.456;2023-01-28T06:17:26;17.43;;;6.13;;
25758;SDS011;13604;52.496;13.456;2023-01-28T06:19:51;12.07;;;6.00;;
25758;SDS011;13604;52.496;13.456;2023-01-28T06:22:16;13.23;;;6.20;;
25758;SDS011;13604;52.496;13.456;2023-01-28T06:24:41;13.37;;;6.67;;
25758;SDS011;13604;52.496;13.456;2023-01-28T06:27:06;15.47;;;7.10;;
25758;SDS011;13604;52.496;13.456;2023-01-28T06:29:32;19.60;;;8.03;;
25758;SDS011;13604;52.496;13.456;2023-01-28T06:31:57;18.98;;;7.18;;
25758;SDS011;13604;52.496;13.456;2023-01-28T06:34:22;17.52;;;7.97;;
25758;SDS011;13604;52.496;13.456;2023-01-28T06:36:47;16.27;;;7.40;;
25758;SDS011;13604;52.496;13.456;2023-01-28T06:39:14;15.10;;;7.03;;
25758;SDS011;13604;52.496;13.456;2023-01-28T06:41:40;16.70;;;7.27;;
25758;SDS011;13604;52.496;13.456;2023-01-28T06:44:05;13.88;;;7.32;;
25758;SDS011;13604;52.496;13.456;2023-01-28T06:46:30;15.27;;;7.07;;
25758;SDS011;13604;52.496;13.456;2023-01-28T06:48:55;14.43;;;7.30;;
25758;SDS011;13604;52.496;13.456;2023-01-28T06:51:20;16.17;;;8.00;;
25758;SDS011;13604;52.496;13.456;2023-01-28T06:53:45;19.30;;;7.77;;
25758;SDS011;13604;52.496;13.456;2023-01-28T06:56:11;20.27;;;8.17;;
25758;SDS011;13604;52.496;13.456;2023-01-28T06:58:36;21.67;;;9.50;;
25758;SDS011;13604;52.496;13.456;2023-01-28T07:01:01;17.40;;;8.03;;
25758;SDS011;13604;52.496;13.456;2023-01-28T07:03:27;15.95;;;8.57;;
25758;SDS011;13604;52.496;13.456;2023-01-28T07:05:52;18.33;;;7.97;;
25758;SDS011;13604;52.496;13.456;2023-01-28T07:08:18;20.13;;;8.33;;
25758;SDS011;13604;52.496;13.456;2023-01-28T07:10:43;17.07;;;7.47;;
25758;SDS011;13604;52.496;13.456;2023-01-28T07:13:08;17.17;;;8.43;;
25758;SDS011;13604;52.496;13.456;2023-01-28T07:15:33;18.15;;;8.07;;
25758;SDS011;13604;52.496;13.456;2023-01-28T07:17:58;17.33;;;8.03;;
25758;SDS011;13604;52.496;13.456;2023-01-28T07:20:24;14.97;;;7.63;;
25758;SDS011;13604;52.496;13.456;2023-01-28T07:22:49;17.08;;;8.00;;
25758;SDS011;13604;52.496;13.456;2023-01-28T07:25:14;22.08;;;9.48;;
25758;SDS011;13604;52.496;13.456;2023-01-28T07:27:45;16.83;;;8.47;;
25758;SDS011;13604;52.496;13.456;2023-01-28T07:30:10;15.50;;;6.63;;
25758;SDS011;13604;52.496;13.456;2023-01-28T07:32:35;13.20;;;6.88;;
25758;SDS011;13604;52.496;13.456;2023-01-28T07:35:00;13.47;;;7.50;;
25758;SDS011;13604;52.496;13.456;2023-01-28T07:37:26;16.20;;;6.37;;
25758;SDS011;13604;52.496;13.456;2023-01-28T07:39:51;12.90;;;7.33;;
25758;SDS011;13604;52.496;13.456;2023-01-28T07:42:16;14.57;;;6.40;;
25758;SDS011;13604;52.496;13.456;2023-01-28T07:44:42;13.38;;;5.75;;
25758;SDS011;13604;52.496;13.456;2023-01-28T07:47:08;12.13;;;5.70;;
25758;SDS011;13604;52.496;13.456;2023-01-28T07:49:33;13.70;;;5.97;;
25758;SDS011;13604;52.496;13.456;2023-01-28T07:51:58;14.67;;;6.50;;
25758;SDS011;13604;52.496;13.456;2023-01-28T07:54:27;13.63;;;6.53;;
25758;SDS011;13604;52.496;13.456;2023-01-28T07:56:53;18.42;;;6.40;;
25758;SDS011;13604;52.496;13.456;2023-01-28T07:59:18;14.37;;;5.53;;
25758;SDS011;13604;52.496;13.456;2023-01-28T08:01:43;13.23;;;5.97;;
25758;SDS011;13604;52.496;13.456;2023-01-28T08:04:08;11.18;;;4.97;;
25758;SDS011;13604;52.496;13.456;2023-01-28T08:06:34;13.20;;;7.10;;
25758;SDS011;13604;52.496;13.456;2023-01-28T08:09:01;16.35;;;8.57;;
25758;SDS011;13604;52.496;13.456;2023-01-28T08:11:29;11.05;;;6.38;;
25758;SDS011;13604;52.496;13.456;2023-01-28T08:13:54;13.13;;;6.40;;
25758;SDS011;13604;52.496;13.456;2023-01-28T08:16:19;12.67;;;7.23;;
25758;SDS011;13604;52.496;13.456;2023-01-28T08:18:44;18.90;;;8.47;;
25758;SDS011;13604;52.496;13.456;2023-01-28T08:21:09;13.73;;;6.73;;
25758;SDS011;13604;52.496;13.456;2023-01-28T08:23:35;11.30;;;5.63;;
25758;SDS011;13604;52.496;13.456;2023-01-28T08:26:00;12.87;;;6.10;;
25758;SDS011;13604;52.496;13.456;2023-01-28T08:28:25;13.63;;;6.47;;
25758;SDS011;13604;52.496;13.456;2023-01-28T08:30:50;11.38;;;5.57;;
25758;SDS011;13604;52.496;13.456;2023-01-28T08:33:16;14.80;;;7.43;;
25758;SDS011;13604;52.496;13.456;2023-01-28T08:35:42;13.98;;;6.70;;
25758;SDS011;13604;52.496;13.456;2023-01-28T08:38:07;14.20;;;7.47;;
25758;SDS011;13604;52.496;13.456;2023-01-28T08:40:33;17.50;;;9.60;;
25758;SDS011;13604;52.496;13.456;2023-01-28T08:42:58;24.58;;;12.40;;
25758;SDS011;13604;52.496;13.456;2023-01-28T08:45:24;43.30;;;19.63;;
25758;SDS011;13604;52.496;13.456;2023-01-28T08:47:50;40.50;;;17.65;;
25758;SDS011;13604;52.496;13.456;2023-01-28T08:50:15;48.63;;;20.80;;
25758;SDS011;13604;52.496;13.456;2023-01-28T08:52:41;20.30;;;9.38;;
25758;SDS011;13604;52.496;13.456;2023-01-28T08:55:08;14.50;;;6.80;;
25758;SDS011;13604;52.496;13.456;2023-01-28T08:57:33;22.83;;;9.32;;
25758;SDS011;13604;52.496;13.456;2023-01-28T08:59:58;24.27;;;11.30;;
25758;SDS011;13604;52.496;13.456;2023-01-28T09:02:24;25.77;;;9.90;;
25758;SDS011;13604;52.496;13.456;2023-01-28T09:04:49;16.80;;;7.97;;
25758;SDS011;13604;52.496;13.456;2023-01-28T09:07:14;12.47;;;5.80;;
25758;SDS011;13604;52.496;13.456;2023-01-28T09:09:39;8.73;;;5.00;;
25758;SDS011;13604;52.496;13.456;2023-01-28T09:12:04;6.73;;;3.30;;
25758;SDS011;13604;52.496;13.456;2023-01-28T09:14:30;6.57;;;3.88;;
25758;SDS011;13604;52.496;13.456;2023-01-28T09:16:55;8.20;;;3.00;;
25758;SDS011;13604;52.496;13.456;2023-01-28T09:19:20;3.47;;;2.30;;
25758;SDS011;13604;52.496;13.456;2023-01-28T09:21:45;5.97;;;2.40;;
25758;SDS011;13604;52.496;13.456;2023-01-28T09:24:10;4.47;;;2.27;;
25758;SDS011;13604;52.496;13.456;2023-01-28T09:26:36;3.97;;;2.22;;
25758;SDS011;13604;52.496;13.456;2023-01-28T09:29:02;5.78;;;2.10;;
25758;SDS011;13604;52.496;13.456;2023-01-28T09:31:27;2.60;;;2.00;;
25758;SDS011;13604;52.496;13.456;2023-01-28T09:33:52;3.17;;;2.07;;
25758;SDS011;13604;52.496;13.456;2023-01-28T09:36:20;4.78;;;1.98;;
25758;SDS011;13604;52.496;13.456;2023-01-28T09:38:45;3.08;;;1.52;;
25758;SDS011;13604;52.496;13.456;2023-01-28T09:41:18;5.10;;;1.80;;
25758;SDS011;13604;52.496;13.456;2023-01-28T09:46:31;4.05;;;1.70;;
25758;SDS011;13604;52.496;13.456;2023-01-28T09:48:56;2.65;;;1.40;;
25758;SDS011;13604;52.496;13.456;2023-01-28T09:51:28;3.53;;;1.75;;
25758;SDS011;13604;52.496;13.456;2023-01-28T09:53:56;4.85;;;1.40;;
25758;SDS011;13604;52.496;13.456;2023-01-28T09:56:27;4.90;;;1.60;;
25758;SDS011;13604;52.496;13.456;2023-01-28T09:58:55;6.22;;;1.40;;
25758;SDS011;13604;52.496;13.456;2023-01-28T10:04:01;4.32;;;1.77;;
25758;SDS011;13604;52.496;13.456;2023-01-28T10:09:15;2.30;;;1.60;;
25758;SDS011;13604;52.496;13.456;2023-01-28T10:14:27;1.55;;;1.30;;
25758;SDS011;13604;52.496;13.456;2023-01-28T10:17:05;2.85;;;1.33;;
25758;SDS011;13604;52.496;13.456;2023-01-28T10:19:36;4.10;;;1.33;;
25758;SDS011;13604;52.496;13.456;2023-01-28T10:22:06;8.05;;;1.77;;
25758;SDS011;13604;52.496;13.456;2023-01-28T10:24:34;2.83;;;1.20;;
25758;SDS011;13604;52.496;13.456;2023-01-28T10:27:00;4.35;;;1.10;;
25758;SDS011;13604;52.496;13.456;2023-01-28T10:29:26;2.10;;;1.10;;
25758;SDS011;13604;52.496;13.456;2023-01-28T10:31:54;4.80;;;2.25;;
25758;SDS011;13604;52.496;13.456;2023-01-28T10:34:20;4.13;;;1.50;;
25758;SDS011;13604;52.496;13.456;2023-01-28T10:36:46;4.15;;;1.40;;
25758;SDS011;13604;52.496;13.456;2023-01-28T10:39:13;2.85;;;1.00;;
25758;SDS011;13604;52.496;13.456;2023-01-28T10:41:39;3.33;;;1.10;;
25758;SDS011;13604;52.496;13.456;2023-01-28T10:44:04;2.55;;;1.10;;
25758;SDS011;13604;52.496;13.456;2023-01-28T10:46:31;2.15;;;1.10;;
25758;SDS011;13604;52.496;13.456;2023-01-28T10:49:14;4.03;;;1.00;;
25758;SDS011;13604;52.496;13.456;2023-01-28T10:51:41;2.25;;;0.90;;
25758;SDS011;13604;52.496;13.456;2023-01-28T10:54:28;4.82;;;1.10;;
25758;SDS011;13604;52.496;13.456;2023-01-28T10:56:53;2.75;;;0.95;;
25758;SDS011;13604;52.496;13.456;2023-01-28T10:59:21;1.90;;;0.70;;
25758;SDS011;13604;52.496;13.456;2023-01-28T11:01:57;3.10;;;0.85;;
25758;SDS011;13604;52.496;13.456;2023-01-28T11:04:30;2.97;;;0.90;;
25758;SDS011;13604;52.496;13.456;2023-01-28T11:06:59;2.38;;;1.17;;
25758;SDS011;13604;52.496;13.456;2023-01-28T11:09:26;2.25;;;0.95;;
25758;SDS011;13604;52.496;13.456;2023-01-28T11:11:52;4.05;;;1.20;;
25758;SDS011;13604;52.496;13.456;2023-01-28T11:14:18;3.17;;;1.13;;
25758;SDS011;13604;52.496;13.456;2023-01-28T11:16:43;3.58;;;1.30;;
25758;SDS011;13604;52.496;13.456;2023-01-28T11:19:09;2.40;;;0.97;;
25758;SDS011;13604;52.496;13.456;2023-01-28T11:21:35;2.65;;;0.90;;
25758;SDS011;13604;52.496;13.456;2023-01-28T11:24:02;1.88;;;1.00;;
25758;SDS011;13604;52.496;13.456;2023-01-28T11:26:28;3.70;;;1.20;;
25758;SDS011;13604;52.496;13.456;2023-01-28T11:28:54;4.53;;;1.48;;
25758;SDS011;13604;52.496;13.456;2023-01-28T11:31:20;3.13;;;1.20;;
25758;SDS011;13604;52.496;13.456;2023-01-28T11:33:50;4.28;;;1.30;;
25758;SDS011;13604;52.496;13.456;2023-01-28T11:36:18;5.40;;;1.23;;
25758;SDS011;13604;52.496;13.456;2023-01-28T11:41:34;2.30;;;1.13;;
25758;SDS011;13604;52.496;13.456;2023-01-28T11:44:17;3.55;;;1.40;;
25758;SDS011;13604;52.496;13.456;2023-01-28T11:46:52;4.55;;;1.58;;
25758;SDS011;13604;52.496;13.456;2023-01-28T11:49:29;2.00;;;1.15;;
25758;SDS011;13604;52.496;13.456;2023-01-28T11:52:03;2.10;;;1.10;;
25758;SDS011;13604;52.496;13.456;2023-01-28T11:57:02;2.93;;;1.03;;
25758;SDS011;13604;52.496;13.456;2023-01-28T12:02:14;4.70;;;1.60;;
25758;SDS011;13604;52.496;13.456;2023-01-28T12:07:36;3.17;;;1.20;;
25758;SDS011;13604;52.496;13.456;2023-01-28T12:12:39;2.97;;;1.30;;
25758;SDS011;13604;52.496;13.456;2023-01-28T12:17:59;10.40;;;2.78;;
25758;SDS011;13604;52.496;13.456;2023-01-28T12:20:30;4.63;;;2.25;;
25758;SDS011;13604;52.496;13.456;2023-01-28T12:23:09;5.07;;;2.70;;
25758;SDS011;13604;52.496;13.456;2023-01-28T12:28:14;7.10;;;3.40;;
25758;SDS011;13604;52.496;13.456;2023-01-28T12:31:01;6.22;;;3.35;;
25758;SDS011;13604;52.496;13.456;2023-01-28T12:33:45;9.73;;;3.38;;
25758;SDS011;13604;52.496;13.456;2023-01-28T12:36:19;6.10;;;2.70;;
25758;SDS011;13604;52.496;13.456;2023-01-28T12:39:00;6.90;;;3.40;;
25758;SDS011;13604;52.496;13.456;2023-01-28T12:41:28;5.70;;;2.38;;
25758;SDS011;13604;52.496;13.456;2023-01-28T12:44:01;5.55;;;1.85;;
25758;SDS011;13604;52.496;13.456;2023-01-28T12:49:09;7.22;;;2.25;;
25758;SDS011;13604;52.496;13.456;2023-01-28T12:56:51;3.83;;;1.73;;
25758;SDS011;13604;52.496;13.456;2023-01-28T13:04:44;8.52;;;2.38;;
25758;SDS011;13604;52.496;13.456;2023-01-28T13:07:12;8.50;;;2.42;;
25758;SDS011;13604;52.496;13.456;2023-01-28T13:09:38;7.10;;;2.67;;
25758;SDS011;13604;52.496;13.456;2023-01-28T13:12:06;10.25;;;3.10;;
25758;SDS011;13604;52.496;13.456;2023-01-28T13:14:31;5.78;;;2.80;;
25758;SDS011;13604;52.496;13.456;2023-01-28T13:17:10;3.22;;;2.05;;
25758;SDS011;13604;52.496;13.456;2023-01-28T13:19:37;4.47;;;2.20;;
25758;SDS011;13604;52.496;13.456;2023-01-28T13:22:24;5.03;;;2.20;;
25758;SDS011;13604;52.496;13.456;2023-01-28T13:24:50;3.38;;;2.15;;
25758;SDS011;13604;52.496;13.456;2023-01-28T13:27:20;7.47;;;1.70;;
25758;SDS011;13604;52.496;13.456;2023-01-28T13:29:46;2.85;;;1.92;;
25758;SDS011;13604;52.496;13.456;2023-01-28T13:32:28;7.10;;;2.45;;
25758;SDS011;13604;52.496;13.456;2023-01-28T13:34:58;3.38;;;2.17;;
25758;SDS011;13604;52.496;13.456;2023-01-28T13:40:03;3.42;;;1.70;;
25758;SDS011;13604;52.496;13.456;2023-01-28T13:42:30;4.20;;;2.03;;
25758;SDS011;13604;52.496;13.456;2023-01-28T13:44:55;23.33;;;8.32;;
25758;SDS011;13604;52.496;13.456;2023-01-28T13:47:32;8.10;;;3.85;;
25758;SDS011;13604;52.496;13.456;2023-01-28T13:50:05;3.05;;;1.80;;
25758;SDS011;13604;52.496;13.456;2023-01-28T13:52:32;5.43;;;1.60;;
25758;SDS011;13604;52.496;13.456;2023-01-28T13:55:03;2.03;;;1.38;;
25758;SDS011;13604;52.496;13.456;2023-01-28T14:00:07;2.42;;;1.80;;
25758;SDS011;13604;52.496;13.456;2023-01-28T14:03:00;5.45;;;1.67;;
25758;SDS011;13604;52.496;13.456;2023-01-28T14:10:49;4.22;;;1.77;;
25758;SDS011;13604;52.496;13.456;2023-01-28T14:13:30;4.53;;;1.55;;
25758;SDS011;13604;52.496;13.456;2023-01-28T14:16:07;4.63;;;1.88;;
25758;SDS011;13604;52.496;13.456;2023-01-28T14:18:38;3.75;;;1.65;;
25758;SDS011;13604;52.496;13.456;2023-01-28T14:21:11;4.72;;;1.88;;
25758;SDS011;13604;52.496;13.456;2023-01-28T14:23:38;5.03;;;1.98;;
25758;SDS011;13604;52.496;13.456;2023-01-28T14:26:12;2.58;;;1.70;;
25758;SDS011;13604;52.496;13.456;2023-01-28T14:31:26;6.70;;;2.00;;
25758;SDS011;13604;52.496;13.456;2023-01-28T14:33:51;2.35;;;1.60;;
25758;SDS011;13604;52.496;13.456;2023-01-28T14:36:17;1.88;;;1.63;;
25758;SDS011;13604;52.496;13.456;2023-01-28T14:38:42;5.33;;;1.63;;
25758;SDS011;13604;52.496;13.456;2023-01-28T14:41:08;6.10;;;2.20;;
25758;SDS011;13604;52.496;13.456;2023-01-28T14:43:37;6.15;;;2.60;;
25758;SDS011;13604;52.496;13.456;2023-01-28T14:46:27;3.38;;;2.00;;
25758;SDS011;13604;52.496;13.456;2023-01-28T14:49:10;4.55;;;1.88;;
25758;SDS011;13604;52.496;13.456;2023-01-28T14:51:41;2.67;;;1.70;;
25758;SDS011;13604;52.496;13.456;2023-01-28T14:54:09;3.88;;;1.50;;
25758;SDS011;13604;52.496;13.456;2023-01-28T14:59:25;4.88;;;1.60;;
25758;SDS011;13604;52.496;13.456;2023-01-28T15:01:56;4.50;;;1.35;;
25758;SDS011;13604;52.496;13.456;2023-01-28T15:04:22;2.97;;;1.70;;
25758;SDS011;13604;52.496;13.456;2023-01-28T15:06:48;4.97;;;1.83;;
25758;SDS011;13604;52.496;13.456;2023-01-28T15:09:13;4.53;;;1.63;;
25758;SDS011;13604;52.496;13.456;2023-01-28T15:11:39;6.82;;;1.95;;
25758;SDS011;13604;52.496;13.456;2023-01-28T15:14:08;4.22;;;1.70;;
25758;SDS011;13604;52.496;13.456;2023-01-28T15:16:36;4.47;;;1.60;;
25758;SDS011;13604;52.496;13.456;2023-01-28T15:19:02;2.28;;;1.40;;
25758;SDS011;13604;52.496;13.456;2023-01-28T15:21:30;6.20;;;1.48;;
25758;SDS011;13604;52.496;13.456;2023-01-28T15:23:57;5.60;;;1.67;;
25758;SDS011;13604;52.496;13.456;2023-01-28T15:26:24;3.83;;;1.70;;
25758;SDS011;13604;52.496;13.456;2023-01-28T15:28:50;8.02;;;2.80;;
25758;SDS011;13604;52.496;13.456;2023-01-28T15:31:19;5.68;;;2.40;;
25758;SDS011;13604;52.496;13.456;2023-01-28T15:33:44;3.63;;;1.90;;
25758;SDS011;13604;52.496;13.456;2023-01-28T15:36:09;6.17;;;2.90;;
25758;SDS011;13604;52.496;13.456;2023-01-28T15:38:35;5.03;;;2.40;;
25758;SDS011;13604;52.496;13.456;2023-01-28T15:41:00;3.43;;;1.60;;
25758;SDS011;13604;52.496;13.456;2023-01-28T15:45:51;5.55;;;2.25;;
25758;SDS011;13604;52.496;13.456;2023-01-28T15:48:19;6.97;;;2.35;;
25758;SDS011;13604;52.496;13.456;2023-01-28T15:50:45;2.95;;;2.08;;
25758;SDS011;13604;52.496;13.456;2023-01-28T15:53:11;5.20;;;1.88;;
25758;SDS011;13604;52.496;13.456;2023-01-28T15:55:44;6.22;;;1.92;;